Time,TemperatureF,DewpointF,PressureIn,WindDirection,WindDirectionDegrees,WindSpeedMPH,WindSpeedGustMPH,Humidity,HourlyPrecipIn,Conditions,Clouds,dailyrainin,SoftwareType,DateUTC
2013-10-26 00:08:00,45.0,39.5,30.21,ENE,65,0.0,0.0,81,0.00,,,0.00,Wunderground v.1.15,2013-10-26 06:08:00,
2013-10-26 00:18:00,45.1,39.3,30.22,ENE,65,0.0,0.0,80,0.00,,,0.00,Wunderground v.1.15,2013-10-26 06:18:00,
2013-10-26 00:28:00,44.7,39.2,30.22,ENE,65,0.0,0.0,81,0.00,,,0.00,Wunderground v.1.15,2013-10-26 06:28:00,
2013-10-26 00:38:00,44.3,39.5,30.22,North,360,0.0,0.0,83,0.00,,,0.00,Wunderground v.1.15,2013-10-26 06:38:00,
2013-10-26 00:48:00,44.0,38.9,30.22,North,1,0.0,0.0,82,0.00,,,0.00,Wunderground v.1.15,2013-10-26 06:48:00,
2013-10-26 00:59:00,43.5,38.7,30.22,North,1,0.0,0.0,83,0.00,,,0.00,Wunderground v.1.15,2013-10-26 06:59:00,
2013-10-26 01:08:00,42.8,38.3,30.23,North,1,0.0,0.0,84,0.00,,,0.00,Wunderground v.1.15,2013-10-26 07:08:00,
2013-10-26 01:18:00,42.8,38.9,30.23,North,1,0.0,0.0,86,0.00,,,0.00,Wunderground v.1.15,2013-10-26 07:18:00,
2013-10-26 01:28:00,42.7,38.5,30.23,North,1,0.0,0.0,85,0.00,,,0.00,Wunderground v.1.15,2013-10-26 07:28:00,
2013-10-26 01:33:00,42.5,38.6,30.23,North,1,0.0,0.0,86,0.00,,,0.00,Wunderground v.1.15,2013-10-26 07:33:00,
2013-10-26 01:43:00,42.7,38.8,30.23,SE,124,0.0,0.0,86,0.00,,,0.00,Wunderground v.1.15,2013-10-26 07:43:00,
2013-10-26 01:53:00,42.8,38.9,30.23,SE,124,0.0,0.0,86,0.00,,,0.00,Wunderground v.1.15,2013-10-26 07:53:00,
2013-10-26 01:58:00,42.7,38.8,30.23,SE,124,0.0,0.0,86,0.00,,,0.00,Wunderground v.1.15,2013-10-26 07:58:00,
2013-10-26 02:08:00,42.6,39.0,30.23,SE,133,0.0,0.0,87,0.00,,,0.00,Wunderground v.1.15,2013-10-26 08:08:00,
2013-10-26 02:13:00,42.8,38.9,30.23,SE,132,0.0,0.0,86,0.00,,,0.00,Wunderground v.1.15,2013-10-26 08:13:00,
2013-10-26 02:23:00,42.2,38.3,30.23,SE,132,0.0,0.0,86,0.00,,,0.00,Wunderground v.1.15,2013-10-26 08:23:00,
2013-10-26 02:33:00,42.2,38.6,30.24,SE,132,0.0,0.0,87,0.00,,,0.00,Wunderground v.1.15,2013-10-26 08:33:00,
2013-10-26 02:43:00,41.5,37.9,30.24,SE,132,0.0,0.0,87,0.00,,,0.00,Wunderground v.1.15,2013-10-26 08:43:00,
2013-10-26 02:53:00,41.1,38.1,30.24,SE,133,0.0,0.0,89,0.00,,,0.00,Wunderground v.1.15,2013-10-26 08:53:00,
2013-10-26 02:59:00,41.3,38.3,30.24,SE,132,0.0,0.0,89,0.00,,,0.00,Wunderground v.1.15,2013-10-26 08:59:00,
2013-10-26 03:08:00,40.8,37.5,30.25,ENE,58,0.0,0.0,88,0.00,,,0.00,Wunderground v.1.15,2013-10-26 09:08:00,
2013-10-26 03:18:00,40.3,37.3,30.25,ENE,60,0.0,0.0,89,0.00,,,0.00,Wunderground v.1.15,2013-10-26 09:18:00,
2013-10-26 03:23:00,40.2,37.5,30.25,ENE,59,0.0,0.0,90,0.00,,,0.00,Wunderground v.1.15,2013-10-26 09:23:00,
2013-10-26 03:28:00,40.2,37.5,30.25,ENE,65,0.0,0.0,90,0.00,,,0.00,Wunderground v.1.15,2013-10-26 09:28:00,
2013-10-26 03:38:00,40.2,37.8,30.25,ENE,65,0.0,0.0,91,0.00,,,0.00,Wunderground v.1.15,2013-10-26 09:38:00,
2013-10-26 03:43:00,40.1,37.4,30.25,ENE,65,0.0,0.0,90,0.00,,,0.00,Wunderground v.1.15,2013-10-26 09:43:00,
2013-10-26 03:53:00,40.1,37.7,30.26,ENE,65,0.0,0.0,91,0.00,,,0.00,Wunderground v.1.15,2013-10-26 09:53:00,
2013-10-26 03:58:00,40.0,37.3,30.26,ENE,65,0.0,0.0,90,0.00,,,0.00,Wunderground v.1.15,2013-10-26 09:58:00,
2013-10-26 04:08:00,39.7,37.0,30.26,ENE,65,0.0,0.0,90,0.00,,,0.00,Wunderground v.1.15,2013-10-26 10:08:00,
2013-10-26 04:18:00,39.5,37.1,30.26,ENE,65,0.0,0.0,91,0.00,,,0.00,Wunderground v.1.15,2013-10-26 10:18:00,
2013-10-26 04:23:00,39.4,37.0,30.26,ENE,65,0.0,0.0,91,0.00,,,0.00,Wunderground v.1.15,2013-10-26 10:23:00,
2013-10-26 04:33:00,39.6,37.5,30.27,ENE,65,0.0,0.0,92,0.00,,,0.00,Wunderground v.1.15,2013-10-26 10:33:00,
2013-10-26 04:43:00,39.8,37.7,30.27,ENE,66,0.0,0.0,92,0.00,,,0.00,Wunderground v.1.15,2013-10-26 10:43:00,
2013-10-26 04:53:00,40.0,37.9,30.27,ENE,70,0.0,0.0,92,0.00,,,0.00,Wunderground v.1.15,2013-10-26 10:53:00,
2013-10-26 04:58:00,40.2,38.1,30.27,ENE,70,0.0,0.0,92,0.00,,,0.00,Wunderground v.1.15,2013-10-26 10:58:00,
2013-10-26 05:08:00,40.3,37.6,30.27,ENE,70,0.0,0.0,90,0.00,,,0.00,Wunderground v.1.15,2013-10-26 11:08:00,
2013-10-26 05:18:00,40.2,37.5,30.28,ENE,70,0.0,0.0,90,0.00,,,0.00,Wunderground v.1.15,2013-10-26 11:18:00,
2013-10-26 05:28:00,40.3,37.6,30.28,SE,131,0.0,0.0,90,0.00,,,0.00,Wunderground v.1.15,2013-10-26 11:28:00,
2013-10-26 05:38:00,40.6,37.6,30.29,SE,137,0.0,0.0,89,0.00,,,0.00,Wunderground v.1.15,2013-10-26 11:38:00,
2013-10-26 05:43:00,40.4,37.1,30.29,SE,136,0.0,0.0,88,0.00,,,0.00,Wunderground v.1.15,2013-10-26 11:43:00,
2013-10-26 05:53:00,39.9,37.2,30.29,SW,228,0.0,0.0,90,0.00,,,0.00,Wunderground v.1.15,2013-10-26 11:53:00,
2013-10-26 05:59:00,39.7,37.0,30.29,SW,228,0.0,0.0,90,0.00,,,0.00,Wunderground v.1.15,2013-10-26 11:59:00,
2013-10-26 06:08:00,39.1,36.4,30.30,SW,226,0.0,0.0,90,0.00,,,0.00,Wunderground v.1.15,2013-10-26 12:08:00,
2013-10-26 06:18:00,38.8,36.4,30.30,SW,226,0.0,0.0,91,0.00,,,0.00,Wunderground v.1.15,2013-10-26 12:18:00,
2013-10-26 06:23:00,38.7,36.3,30.30,SW,226,0.0,0.0,91,0.00,,,0.00,Wunderground v.1.15,2013-10-26 12:23:00,
2013-10-26 06:33:00,38.5,36.4,30.30,SW,226,0.0,0.0,92,0.00,,,0.00,Wunderground v.1.15,2013-10-26 12:33:00,
2013-10-26 06:43:00,38.1,35.7,30.30,SW,226,0.0,0.0,91,0.00,,,0.00,Wunderground v.1.15,2013-10-26 12:43:00,
2013-10-26 06:53:00,38.3,36.2,30.30,SW,215,0.0,0.0,92,0.00,,,0.00,Wunderground v.1.15,2013-10-26 12:53:00,
2013-10-26 06:58:00,38.4,36.6,30.30,SE,143,0.0,0.0,93,0.00,,,0.00,Wunderground v.1.15,2013-10-26 12:58:00,
2013-10-26 07:08:00,38.6,36.5,30.30,SE,142,0.0,0.0,92,0.00,,,0.00,Wunderground v.1.15,2013-10-26 13:08:00,
2013-10-26 07:18:00,38.4,36.0,30.31,SE,142,0.0,0.0,91,0.00,,,0.00,Wunderground v.1.15,2013-10-26 13:18:00,
2013-10-26 07:28:00,38.2,35.8,30.31,SE,127,0.0,0.0,91,0.00,,,0.00,Wunderground v.1.15,2013-10-26 13:28:00,
2013-10-26 07:38:00,38.1,36.0,30.32,SE,127,0.0,0.0,92,0.00,,,0.00,Wunderground v.1.15,2013-10-26 13:38:00,
2013-10-26 07:48:00,37.9,35.8,30.32,SE,127,0.0,0.0,92,0.00,,,0.00,Wunderground v.1.15,2013-10-26 13:48:00,
2013-10-26 07:59:00,38.2,36.1,30.33,SE,127,0.0,0.0,92,0.00,,,0.00,Wunderground v.1.15,2013-10-26 13:59:00,
2013-10-26 08:08:00,38.1,36.0,30.33,SE,127,0.0,0.0,92,0.00,,,0.00,Wunderground v.1.15,2013-10-26 14:08:00,
2013-10-26 08:18:00,38.4,36.6,30.34,SE,127,0.0,0.0,93,0.00,,,0.00,Wunderground v.1.15,2013-10-26 14:18:00,
2013-10-26 08:23:00,38.6,36.8,30.34,SE,127,0.0,0.0,93,0.00,,,0.00,Wunderground v.1.15,2013-10-26 14:23:00,
2013-10-26 08:33:00,39.2,37.3,30.34,SE,127,0.0,0.0,93,0.00,,,0.00,Wunderground v.1.15,2013-10-26 14:33:00,
2013-10-26 08:43:00,40.6,39.0,30.35,SE,127,0.0,0.0,94,0.00,,,0.00,Wunderground v.1.15,2013-10-26 14:43:00,
2013-10-26 08:53:00,42.2,40.3,30.35,SE,127,0.0,0.0,93,0.00,,,0.00,Wunderground v.1.15,2013-10-26 14:53:00,
2013-10-26 08:58:00,43.3,41.1,30.36,SE,127,0.0,0.0,92,0.00,,,0.00,Wunderground v.1.15,2013-10-26 14:58:00,
2013-10-26 09:08:00,45.8,41.9,30.36,NNE,30,1.0,1.0,86,0.00,,,0.00,Wunderground v.1.15,2013-10-26 15:08:00,
2013-10-26 09:18:00,47.0,42.1,30.36,NNE,32,1.0,1.0,83,0.00,,,0.00,Wunderground v.1.15,2013-10-26 15:18:00,
2013-10-26 09:28:00,47.9,42.3,30.36,North,1,1.0,1.0,81,0.00,,,0.00,Wunderground v.1.15,2013-10-26 15:28:00,
2013-10-26 09:38:00,48.8,42.6,30.37,NNE,33,1.0,1.0,79,0.00,,,0.00,Wunderground v.1.15,2013-10-26 15:38:00,
2013-10-26 09:48:00,49.5,42.9,30.36,NNW,347,2.0,3.0,78,0.00,,,0.00,Wunderground v.1.15,2013-10-26 15:48:00,
2013-10-26 09:59:00,50.1,42.5,30.37,NNW,348,2.0,2.0,75,0.00,,,0.00,Wunderground v.1.15,2013-10-26 15:59:00,
2013-10-26 10:08:00,50.9,42.6,30.37,NNW,335,2.0,2.0,73,0.00,,,0.00,Wunderground v.1.15,2013-10-26 16:08:00,
2013-10-26 10:18:00,51.5,42.0,30.37,North,353,2.0,3.0,70,0.00,,,0.00,Wunderground v.1.15,2013-10-26 16:18:00,
2013-10-26 10:23:00,51.8,41.9,30.37,North,3,3.0,3.0,69,0.00,,,0.00,Wunderground v.1.15,2013-10-26 16:23:00,
2013-10-26 10:33:00,52.0,42.5,30.37,NNW,328,2.0,4.0,70,0.00,,,0.00,Wunderground v.1.15,2013-10-26 16:33:00,
2013-10-26 10:43:00,52.5,41.9,30.37,NW,319,2.0,2.0,67,0.00,,,0.00,Wunderground v.1.15,2013-10-26 16:43:00,
2013-10-26 10:53:00,52.8,42.5,30.37,West,264,3.0,3.0,68,0.00,,,0.00,Wunderground v.1.15,2013-10-26 16:53:00,
2013-10-26 10:58:00,53.2,42.5,30.37,NNW,329,3.0,4.0,67,0.00,,,0.00,Wunderground v.1.15,2013-10-26 16:58:00,
2013-10-26 11:08:00,53.6,42.1,30.37,WNW,290,2.0,2.0,65,0.00,,,0.00,Wunderground v.1.15,2013-10-26 17:08:00,
2013-10-26 11:18:00,55.1,43.5,30.36,SSW,212,1.0,1.0,65,0.00,,,0.00,Wunderground v.1.15,2013-10-26 17:18:00,
2013-10-26 11:28:00,55.9,43.1,30.36,WNW,293,2.0,2.0,62,0.00,,,0.00,Wunderground v.1.15,2013-10-26 17:28:00,
2013-10-26 11:38:00,56.6,43.7,30.36,West,260,2.0,2.0,62,0.00,,,0.00,Wunderground v.1.15,2013-10-26 17:38:00,
2013-10-26 11:48:00,57.4,43.2,30.36,NNW,330,2.0,2.0,59,0.00,,,0.00,Wunderground v.1.15,2013-10-26 17:48:00,
2013-10-26 11:53:00,57.7,43.0,30.36,North,8,2.0,3.0,58,0.00,,,0.00,Wunderground v.1.15,2013-10-26 17:53:00,
2013-10-26 11:59:00,57.5,42.4,30.36,NNW,340,4.0,4.0,57,0.00,,,0.00,Wunderground v.1.15,2013-10-26 17:59:00,
2013-10-26 12:08:00,57.4,42.7,30.36,WNW,298,4.0,4.0,58,0.00,,,0.00,Wunderground v.1.15,2013-10-26 18:08:00,
2013-10-26 12:13:00,57.7,42.6,30.36,NW,308,3.0,4.0,57,0.00,,,0.00,Wunderground v.1.15,2013-10-26 18:13:00,
2013-10-26 12:23:00,58.3,44.0,30.35,ENE,62,3.0,4.0,59,0.00,,,0.00,Wunderground v.1.15,2013-10-26 18:23:00,
2013-10-26 12:28:00,58.8,43.6,30.35,North,11,4.0,4.0,57,0.00,,,0.00,Wunderground v.1.15,2013-10-26 18:28:00,
2013-10-26 12:38:00,59.5,43.3,30.35,NNW,335,3.0,3.0,55,0.00,,,0.00,Wunderground v.1.15,2013-10-26 18:38:00,
2013-10-26 12:48:00,59.9,42.7,30.34,NW,316,3.0,3.0,53,0.00,,,0.00,Wunderground v.1.15,2013-10-26 18:48:00,
2013-10-26 12:58:00,60.8,42.0,30.34,WNW,293,2.0,4.0,50,0.00,,,0.00,Wunderground v.1.15,2013-10-26 18:58:00,
2013-10-26 13:08:00,61.8,41.9,30.33,NNW,332,3.0,5.0,48,0.00,,,0.00,Wunderground v.1.15,2013-10-26 19:08:00,
2013-10-26 13:18:00,62.2,42.3,30.33,WNW,300,3.0,3.0,48,0.00,,,0.00,Wunderground v.1.15,2013-10-26 19:18:00,
2013-10-26 13:28:00,62.1,41.6,30.32,WNW,302,3.0,3.0,47,0.00,,,0.00,Wunderground v.1.15,2013-10-26 19:28:00,
2013-10-26 13:38:00,62.8,41.1,30.32,NNW,340,2.0,2.0,45,0.00,,,0.00,Wunderground v.1.15,2013-10-26 19:38:00,
2013-10-26 13:48:00,63.7,41.9,30.31,West,273,2.0,3.0,45,0.00,,,0.00,Wunderground v.1.15,2013-10-26 19:48:00,
2013-10-26 13:53:00,63.9,41.5,30.31,NW,323,2.0,3.0,44,0.00,,,0.00,Wunderground v.1.15,2013-10-26 19:53:00,
2013-10-26 13:59:00,63.5,40.0,30.31,NW,321,3.0,3.0,42,0.00,,,0.00,Wunderground v.1.15,2013-10-26 19:59:00,
2013-10-26 14:08:00,64.2,40.6,30.30,WNW,301,1.0,5.0,42,0.00,,,0.00,Wunderground v.1.15,2013-10-26 20:08:00,
2013-10-26 14:18:00,63.8,39.0,30.30,NNW,342,3.0,4.0,40,0.00,,,0.00,Wunderground v.1.15,2013-10-26 20:18:00,
2013-10-26 14:28:00,64.7,39.2,30.29,SW,221,2.0,2.0,39,0.00,,,0.00,Wunderground v.1.15,2013-10-26 20:28:00,
2013-10-26 14:33:00,65.3,39.7,30.29,NNW,339,2.0,2.0,39,0.00,,,0.00,Wunderground v.1.15,2013-10-26 20:33:00,
2013-10-26 14:43:00,65.5,39.2,30.29,SW,233,3.0,4.0,38,0.00,,,0.00,Wunderground v.1.15,2013-10-26 20:43:00,
2013-10-26 14:53:00,66.4,40.0,30.29,NW,325,1.0,2.0,38,0.00,,,0.00,Wunderground v.1.15,2013-10-26 20:53:00,
2013-10-26 14:58:00,66.4,39.3,30.29,SSE,161,0.0,0.0,37,0.00,,,0.00,Wunderground v.1.15,2013-10-26 20:58:00,
2013-10-26 15:08:00,65.7,38.7,30.29,SSE,160,2.0,2.0,37,0.00,,,0.00,Wunderground v.1.15,2013-10-26 21:08:00,
2013-10-26 15:18:00,66.0,38.3,30.29,NW,305,2.0,3.0,36,0.00,,,0.00,Wunderground v.1.15,2013-10-26 21:18:00,
2013-10-26 15:28:00,67.1,39.2,30.29,West,271,1.0,3.0,36,0.00,,,0.00,Wunderground v.1.15,2013-10-26 21:28:00,
2013-10-26 15:38:00,65.9,37.5,30.29,WSW,253,3.0,3.0,35,0.00,,,0.00,Wunderground v.1.15,2013-10-26 21:38:00,
2013-10-26 15:48:00,65.7,38.0,30.29,NNW,338,1.0,3.0,36,0.00,,,0.00,Wunderground v.1.15,2013-10-26 21:48:00,
2013-10-26 15:59:00,65.1,38.2,30.28,WNW,303,2.0,4.0,37,0.00,,,0.00,Wunderground v.1.15,2013-10-26 21:59:00,
2013-10-26 16:08:00,64.7,37.1,30.28,NW,318,1.0,1.0,36,0.00,,,0.00,Wunderground v.1.15,2013-10-26 22:08:00,
2013-10-26 16:18:00,64.6,37.7,30.28,WNW,283,0.0,0.0,37,0.00,,,0.00,Wunderground v.1.15,2013-10-26 22:18:00,
2013-10-26 16:28:00,64.6,38.4,30.28,West,276,0.0,0.0,38,0.00,,,0.00,Wunderground v.1.15,2013-10-26 22:28:00,
2013-10-26 16:33:00,64.5,37.6,30.28,West,274,0.0,0.0,37,0.00,,,0.00,Wunderground v.1.15,2013-10-26 22:33:00,
2013-10-26 16:43:00,63.6,38.2,30.28,NW,321,0.0,2.0,39,0.00,,,0.00,Wunderground v.1.15,2013-10-26 22:43:00,
2013-10-26 16:53:00,63.1,37.7,30.28,NW,323,1.0,2.0,39,0.00,,,0.00,Wunderground v.1.15,2013-10-26 22:53:00,
2013-10-26 16:58:00,62.9,37.5,30.28,West,281,1.0,1.0,39,0.00,,,0.00,Wunderground v.1.15,2013-10-26 22:58:00,
2013-10-26 17:08:00,62.7,38.0,30.28,West,281,0.0,0.0,40,0.00,,,0.00,Wunderground v.1.15,2013-10-26 23:08:00,
2013-10-26 17:18:00,62.4,39.0,30.28,West,281,0.0,0.0,42,0.00,,,0.00,Wunderground v.1.15,2013-10-26 23:18:00,
2013-10-26 17:28:00,61.6,40.0,30.28,West,281,0.0,0.0,45,0.00,,,0.00,Wunderground v.1.15,2013-10-26 23:28:00,
2013-10-26 17:38:00,61.1,39.6,30.28,West,277,0.0,0.0,45,0.00,,,0.00,Wunderground v.1.15,2013-10-26 23:38:00,
2013-10-26 17:48:00,61.1,39.6,30.28,WSW,245,0.0,0.0,45,0.00,,,0.00,Wunderground v.1.15,2013-10-26 23:48:00,
2013-10-26 17:59:00,61.3,40.3,30.28,WSW,245,0.0,0.0,46,0.00,,,0.00,Wunderground v.1.15,2013-10-26 23:59:00,
2013-10-26 18:08:00,60.7,40.3,30.28,WSW,245,0.0,0.0,47,0.00,,,0.00,Wunderground v.1.15,2013-10-27 00:08:00,
2013-10-26 18:18:00,59.8,40.6,30.28,WSW,245,0.0,0.0,49,0.00,,,0.00,Wunderground v.1.15,2013-10-27 00:18:00,
2013-10-26 18:28:00,58.3,40.2,30.28,WSW,245,0.0,0.0,51,0.00,,,0.00,Wunderground v.1.15,2013-10-27 00:28:00,
2013-10-26 18:33:00,57.6,41.5,30.28,WSW,245,0.0,0.0,55,0.00,,,0.00,Wunderground v.1.15,2013-10-27 00:33:00,
2013-10-26 18:43:00,56.1,40.6,30.29,WSW,245,0.0,0.0,56,0.00,,,0.00,Wunderground v.1.15,2013-10-27 00:43:00,
2013-10-26 18:53:00,55.3,41.2,30.29,WSW,245,0.0,0.0,59,0.00,,,0.00,Wunderground v.1.15,2013-10-27 00:53:00,
2013-10-26 18:58:00,54.9,40.8,30.29,WSW,245,0.0,0.0,59,0.00,,,0.00,Wunderground v.1.15,2013-10-27 00:58:00,
2013-10-26 19:08:00,54.5,40.9,30.30,WSW,245,0.0,0.0,60,0.00,,,0.00,Wunderground v.1.15,2013-10-27 01:08:00,
2013-10-26 19:18:00,54.0,40.8,30.30,WSW,245,0.0,0.0,61,0.00,,,0.00,Wunderground v.1.15,2013-10-27 01:18:00,
2013-10-26 19:28:00,54.1,40.9,30.30,WSW,245,0.0,0.0,61,0.00,,,0.00,Wunderground v.1.15,2013-10-27 01:28:00,
2013-10-26 19:38:00,54.9,40.8,30.31,ESE,123,0.0,0.0,59,0.00,,,0.00,Wunderground v.1.15,2013-10-27 01:38:00,
2013-10-26 19:48:00,55.3,41.2,30.31,ESE,122,0.0,0.0,59,0.00,,,0.00,Wunderground v.1.15,2013-10-27 01:48:00,
2013-10-26 19:59:00,55.1,41.5,30.31,SSE,159,0.0,2.0,60,0.00,,,0.00,Wunderground v.1.15,2013-10-27 01:59:00,
2013-10-26 20:08:00,56.0,41.0,30.31,SE,125,0.0,0.0,57,0.00,,,0.00,Wunderground v.1.15,2013-10-27 02:08:00,
2013-10-26 20:18:00,55.8,41.7,30.31,SE,125,0.0,0.0,59,0.00,,,0.00,Wunderground v.1.15,2013-10-27 02:18:00,
2013-10-26 20:28:00,55.6,41.0,30.31,SE,125,0.0,0.0,58,0.00,,,0.00,Wunderground v.1.15,2013-10-27 02:28:00,
2013-10-26 20:38:00,55.4,39.0,30.31,ESE,122,0.0,0.0,54,0.00,,,0.00,Wunderground v.1.15,2013-10-27 02:38:00,
2013-10-26 20:48:00,56.4,35.9,30.31,SE,132,1.0,1.0,46,0.00,,,0.00,Wunderground v.1.15,2013-10-27 02:48:00,
2013-10-26 20:59:00,56.9,34.6,30.31,ESE,113,0.0,0.0,43,0.00,,,0.00,Wunderground v.1.15,2013-10-27 02:59:00,
2013-10-26 21:08:00,56.5,34.8,30.32,West,266,0.0,0.0,44,0.00,,,0.00,Wunderground v.1.15,2013-10-27 03:08:00,
2013-10-26 21:13:00,56.3,35.8,30.32,WNW,300,0.0,0.0,46,0.00,,,0.00,Wunderground v.1.15,2013-10-27 03:13:00,
2013-10-26 21:23:00,55.7,38.3,30.32,NNE,13,0.0,1.0,52,0.00,,,0.00,Wunderground v.1.15,2013-10-27 03:23:00,
2013-10-26 21:33:00,54.9,38.6,30.32,SE,131,0.0,0.0,54,0.00,,,0.00,Wunderground v.1.15,2013-10-27 03:33:00,
2013-10-26 21:43:00,54.3,38.5,30.32,SE,129,0.0,0.0,55,0.00,,,0.00,Wunderground v.1.15,2013-10-27 03:43:00,
2013-10-26 21:53:00,53.5,36.8,30.32,ESE,121,0.0,0.0,53,0.00,,,0.00,Wunderground v.1.15,2013-10-27 03:53:00,
2013-10-26 21:58:00,53.3,36.6,30.32,ESE,121,0.0,0.0,53,0.00,,,0.00,Wunderground v.1.15,2013-10-27 03:58:00,
2013-10-26 22:03:00,52.8,37.1,30.32,ESE,121,0.0,0.0,55,0.00,,,0.00,Wunderground v.1.15,2013-10-27 04:03:00,
2013-10-26 22:08:00,52.2,36.5,30.32,ESE,122,0.0,0.0,55,0.00,,,0.00,Wunderground v.1.15,2013-10-27 04:08:00,
2013-10-26 22:13:00,51.9,36.2,30.32,ESE,122,0.0,0.0,55,0.00,,,0.00,Wunderground v.1.15,2013-10-27 04:13:00,
2013-10-26 22:23:00,52.3,35.7,30.32,East,91,0.0,0.0,53,0.00,,,0.00,Wunderground v.1.15,2013-10-27 04:23:00,
2013-10-26 22:28:00,52.6,35.9,30.32,ESE,113,0.0,0.0,53,0.00,,,0.00,Wunderground v.1.15,2013-10-27 04:28:00,
2013-10-26 22:38:00,52.6,35.9,30.32,ESE,111,0.0,0.0,53,0.00,,,0.00,Wunderground v.1.15,2013-10-27 04:38:00,
2013-10-26 22:48:00,52.1,35.9,30.31,ESE,111,0.0,0.0,54,0.00,,,0.00,Wunderground v.1.15,2013-10-27 04:48:00,
2013-10-26 22:59:00,51.4,35.8,30.31,ESE,111,0.0,0.0,55,0.00,,,0.00,Wunderground v.1.15,2013-10-27 04:59:00,
2013-10-26 23:08:00,50.7,35.6,30.31,ESE,111,0.0,0.0,56,0.00,,,0.00,Wunderground v.1.15,2013-10-27 05:08:00,
2013-10-26 23:13:00,50.6,35.9,30.31,ESE,111,0.0,0.0,57,0.00,,,0.00,Wunderground v.1.15,2013-10-27 05:13:00,
2013-10-26 23:23:00,50.5,36.7,30.31,NE,53,0.0,0.0,59,0.00,,,0.00,Wunderground v.1.15,2013-10-27 05:23:00,
2013-10-26 23:33:00,50.4,36.2,30.30,NE,48,0.0,0.0,58,0.00,,,0.00,Wunderground v.1.15,2013-10-27 05:33:00,
2013-10-26 23:38:00,50.4,36.2,30.30,NE,46,0.0,0.0,58,0.00,,,0.00,Wunderground v.1.15,2013-10-27 05:38:00,
2013-10-26 23:48:00,49.8,36.0,30.30,NNW,347,1.0,2.0,59,0.00,,,0.00,Wunderground v.1.15,2013-10-27 05:48:00,
2013-10-26 23:58:00,50.2,35.5,30.29,North,11,1.0,1.0,57,0.00,,,0.00,Wunderground v.1.15,2013-10-27 05:58:00,